Time;durP1;ratioP1;P1;durP2;ratioP2;P2;SDS_P1;SDS_P2;PMS_P1;PMS_P2;Temp;Humidity;BMP_temperature;BMP_pressure;BME280_temperature;BME280_humidity;BME280_pressure;Samples;Min_cycle;Max_cycle;Signal;HPM_P1;HPM_P2
2022/12/08 00:01:20;;;;;;;;;3.50;2.75;;;;;1.59;82.73;97928.53;4908092;28;102463;-68
2022/12/08 00:03:47;;;;;;;;;3.25;2.75;;;;;1.58;83.07;97929.53;4907427;28;105812;-68
2022/12/08 00:09:20;;;;;;;;;5.50;4.50;;;;;1.62;82.06;97930.06;4909225;28;102810;-69
2022/12/08 00:11:49;;;;;;;;;7.75;5.00;;;;;1.57;82.17;97927.88;4912036;28;102488;-69
2022/12/08 00:14:16;;;;;;;;;4.50;4.00;;;;;1.57;82.52;97914.56;4908067;28;104209;-68
2022/12/08 00:16:43;;;;;;;;;3.25;3.25;;;;;1.60;82.77;97932.88;4909249;28;102375;-69
2022/12/08 00:19:10;;;;;;;;;3.50;2.25;;;;;1.62;82.01;97935.38;4909259;28;102509;-69
2022/12/08 00:21:38;;;;;;;;;6.00;4.00;;;;;1.61;82.83;97931.03;4911232;28;102492;-68
2022/12/08 00:24:05;;;;;;;;;6.25;4.75;;;;;1.60;82.94;97937.34;4907593;28;104245;-69
2022/12/08 00:26:32;;;;;;;;;1.00;1.00;;;;;1.63;82.72;97932.53;4912493;28;102448;-68
2022/12/08 00:28:59;;;;;;;;;4.75;3.00;;;;;1.60;82.02;97932.88;4908929;28;102326;-68
2022/12/08 00:31:26;;;;;;;;;4.00;2.00;;;;;1.62;82.36;97932.72;4904519;28;102092;-68
2022/12/08 00:33:53;;;;;;;;;2.00;1.75;;;;;1.61;81.71;97947.03;4907743;28;104007;-67
2022/12/08 00:36:19;;;;;;;;;1.75;1.00;;;;;1.61;82.99;97942.53;4911808;28;102976;-67
2022/12/08 00:38:47;;;;;;;;;0.00;0.00;;;;;1.59;82.67;97944.50;4911020;28;103095;-68
2022/12/08 00:41:18;;;;;;;;;2.00;1.75;;;;;1.60;83.14;97954.19;4913783;28;102260;-68
2022/12/08 00:43:45;;;;;;;;;1.00;0.25;;;;;1.61;82.93;97949.69;4911215;28;102463;-68
2022/12/08 00:46:11;;;;;;;;;2.00;2.00;;;;;1.60;82.32;97951.53;4913956;28;102293;-69
2022/12/08 00:48:39;;;;;;;;;2.25;1.00;;;;;1.63;83.34;97959.19;4912574;28;102076;-68
2022/12/08 00:51:05;;;;;;;;;0.25;0.25;;;;;1.66;81.98;97963.38;4913679;28;101953;-69
2022/12/08 00:53:32;;;;;;;;;0.50;0.00;;;;;1.61;82.08;97953.19;4912285;28;103955;-68
2022/12/08 00:55:59;;;;;;;;;0.25;0.25;;;;;1.65;83.28;97957.22;4914113;28;102011;-68
2022/12/08 00:58:27;;;;;;;;;0.00;0.00;;;;;1.69;83.59;97961.22;4912241;28;102042;-69
2022/12/08 01:00:54;;;;;;;;;1.50;0.00;;;;;1.69;82.91;97961.22;4913949;28;102528;-68
2022/12/08 01:03:21;;;;;;;;;1.00;0.50;;;;;1.71;82.37;97958.41;4911254;28;104023;-69
2022/12/08 01:05:48;;;;;;;;;1.00;1.00;;;;;1.70;82.37;97968.22;4913430;28;102200;-69
2022/12/08 01:08:15;;;;;;;;;1.25;1.00;;;;;1.71;82.66;97974.38;4906459;28;102364;-69
2022/12/08 01:10:42;;;;;;;;;3.00;1.75;;;;;1.69;82.88;97973.69;4893125;28;104084;-69
2022/12/08 01:13:10;;;;;;;;;2.50;1.50;;;;;1.71;83.17;97971.72;4905577;28;103991;-69
2022/12/08 01:15:37;;;;;;;;;1.00;1.00;;;;;1.72;83.07;97971.53;4908285;28;102505;-68
2022/12/08 01:18:04;;;;;;;;;1.00;1.00;;;;;1.74;83.12;97969.56;4908958;28;102793;-69
2022/12/08 01:20:30;;;;;;;;;0.00;0.00;;;;;1.77;82.53;97976.38;4911667;28;102117;-69
2022/12/08 01:22:57;;;;;;;;;0.50;0.50;;;;;1.78;83.22;97976.25;4909985;28;108740;-69
2022/12/08 01:25:24;;;;;;;;;0.50;0.00;;;;;1.78;82.39;97973.56;4904637;28;102522;-68
2022/12/08 01:27:52;;;;;;;;;0.00;0.00;;;;;1.79;83.05;97967.25;4907566;28;102462;-69
2022/12/08 01:30:20;;;;;;;;;1.00;1.00;;;;;1.79;81.93;97969.91;4900494;28;102304;-69
2022/12/08 01:32:47;;;;;;;;;2.00;1.00;;;;;1.76;82.54;97967.56;4906951;28;103964;-69
2022/12/08 01:35:14;;;;;;;;;1.00;0.00;;;;;1.77;82.25;97966.56;4907462;28;102471;-69
2022/12/08 01:37:41;;;;;;;;;1.00;0.00;;;;;1.80;82.77;97974.22;4905488;28;102362;-69
2022/12/08 01:40:09;;;;;;;;;0.50;0.00;;;;;1.77;81.97;97966.56;4909759;28;101892;-68
2022/12/08 01:42:37;;;;;;;;;0.00;0.00;;;;;1.78;81.79;97960.25;4905613;28;103967;-69
2022/12/08 01:45:28;;;;;;;;;2.00;1.00;;;;;1.78;81.39;97957.59;4907232;28;104624;-69
2022/12/08 01:48:01;;;;;;;;;3.00;1.00;;;;;1.78;82.37;97954.91;4899767;28;102089;-69
2022/12/08 01:50:29;;;;;;;;;2.00;1.00;;;;;1.78;81.35;97957.59;4905314;28;102223;-69
2022/12/08 01:53:08;;;;;;;;;0.25;0.25;;;;;1.81;82.58;97961.75;4906955;28;104124;-69
2022/12/08 01:55:41;;;;;;;;;1.00;1.00;;;;;1.79;82.38;97961.94;4908584;28;102231;-68
2022/12/08 01:58:42;;;;;;;;;0.00;0.00;;;;;1.79;82.51;97953.94;4906795;28;102203;-69
2022/12/08 02:01:09;;;;;;;;;1.00;1.00;;;;;1.64;82.57;97936.88;4856541;28;102040;-69
2022/12/08 02:03:57;;;;;;;;;1.00;1.00;;;;;1.76;82.65;97964.88;4903874;28;104031;-69
2022/12/08 02:06:42;;;;;;;;;1.00;0.00;;;;;1.75;81.80;97965.06;4898254;28;102120;-69
2022/12/08 02:09:28;;;;;;;;;1.00;0.00;;;;;1.73;82.12;97965.22;4903487;28;102483;-69
2022/12/08 02:12:14;;;;;;;;;0.50;0.50;;;;;1.75;81.64;97968.56;4906111;28;103990;-70
2022/12/08 02:15:00;;;;;;;;;1.00;0.00;;;;;1.74;82.17;97966.91;4880078;28;107823;-69
2022/12/08 02:17:51;;;;;;;;;0.00;0.00;;;;;1.74;82.45;97966.91;4896958;28;101995;-69
2022/12/08 02:20:52;;;;;;;;;0.00;0.00;;;;;1.72;81.67;97962.72;4884851;28;102462;-69
2022/12/08 02:24:18;;;;;;;;;1.00;1.00;;;;;1.67;82.08;97959.69;4899234;28;103700;-69
2022/12/08 02:27:25;;;;;;;;;1.00;0.00;;;;;1.68;82.42;97956.03;4861886;28;107811;-69
2022/12/08 02:30:18;;;;;;;;;1.00;1.00;;;;;1.68;82.36;97964.03;4883877;28;101946;-69
2022/12/08 02:33:05;;;;;;;;;0.00;0.00;;;;;1.67;82.01;97965.00;4886269;28;102401;-69
2022/12/08 02:35:43;;;;;;;;;1.00;0.75;;;;;1.67;82.87;97960.53;4883567;28;102867;-69
2022/12/08 02:38:16;;;;;;;;;1.00;0.00;;;;;1.67;82.08;97971.19;4883531;28;108604;-70
2022/12/08 02:40:58;;;;;;;;;2.00;1.00;;;;;1.66;82.60;97964.22;4890176;28;102682;-70
2022/12/08 02:43:32;;;;;;;;;2.25;1.00;;;;;1.67;82.73;97967.69;4893735;28;101978;-69
2022/12/08 02:46:04;;;;;;;;;0.00;0.00;;;;;1.67;82.89;97971.19;4897090;28;102456;-69
2022/12/08 02:48:33;;;;;;;;;0.00;0.00;;;;;1.62;82.31;97959.38;4892677;28;109025;-69
2022/12/08 02:51:00;;;;;;;;;0.50;0.00;;;;;1.64;82.41;97968.84;4903637;28;102112;-69
2022/12/08 02:53:33;;;;;;;;;1.00;1.00;;;;;1.63;82.56;97964.50;4894629;28;102011;-69
2022/12/08 02:56:33;;;;;;;;;1.00;1.00;;;;;1.63;82.63;97969.00;4883504;28;102360;-69
2022/12/08 02:59:16;;;;;;;;;0.00;0.00;;;;;1.59;82.58;97968.50;4893831;28;108632;-69
2022/12/08 03:02:08;;;;;;;;;0.00;0.00;;;;;1.54;82.70;97961.97;4887785;28;109995;-69
2022/12/08 03:04:38;;;;;;;;;0.00;0.00;;;;;1.52;83.30;97962.16;4893198;28;102054;-69
2022/12/08 03:07:08;;;;;;;;;1.25;0.00;;;;;1.49;82.73;97967.78;4891411;28;102182;-69
2022/12/08 03:09:53;;;;;;;;;0.00;0.00;;;;;1.47;82.60;97964.47;4881382;28;103988;-69
2022/12/08 03:12:36;;;;;;;;;0.00;0.00;;;;;1.45;83.28;97960.25;4888416;28;102217;-69
2022/12/08 03:15:12;;;;;;;;;0.00;0.00;;;;;1.44;82.62;97964.75;4885013;28;102658;-69
2022/12/08 03:17:44;;;;;;;;;0.00;0.00;;;;;1.36;82.55;97956.72;4888855;28;102619;-69
2022/12/08 03:20:16;;;;;;;;;1.00;0.75;;;;;1.41;83.76;97954.44;4884156;28;103703;-69
2022/12/08 03:22:45;;;;;;;;;0.00;0.00;;;;;1.38;82.70;97949.44;4880028;28;104698;-69
2022/12/08 03:25:14;;;;;;;;;0.25;0.25;;;;;1.41;83.12;97950.94;4899704;28;102424;-69
2022/12/08 03:27:42;;;;;;;;;0.00;0.00;;;;;1.43;83.48;97957.78;4911263;28;102352;-69
2022/12/08 03:30:09;;;;;;;;;0.00;0.00;;;;;1.39;83.24;97947.59;4912964;28;103073;-69
2022/12/08 03:32:51;;;;;;;;;1.00;1.00;;;;;1.41;83.90;97949.09;4907434;28;103414;-69
2022/12/08 03:35:30;;;;;;;;;1.00;1.00;;;;;1.40;82.43;97946.63;4905047;28;102641;-69
2022/12/08 03:38:09;;;;;;;;;0.25;0.00;;;;;1.41;83.18;97946.44;4908954;28;102386;-69
2022/12/08 03:40:37;;;;;;;;;0.00;0.00;;;;;1.40;82.76;97950.09;4906036;28;108830;-69
2022/12/08 03:43:04;;;;;;;;;0.25;0.00;;;;;1.39;83.32;97945.78;4910094;28;103541;-69
2022/12/08 03:45:31;;;;;;;;;0.50;0.50;;;;;1.38;82.94;97937.94;4912163;28;102102;-69
2022/12/08 03:47:58;;;;;;;;;1.00;0.00;;;;;1.37;82.89;97947.75;4906174;28;102438;-69
2022/12/08 03:50:25;;;;;;;;;0.00;0.00;;;;;1.35;83.69;97944.44;4910485;28;104007;-69
2022/12/08 03:52:52;;;;;;;;;0.00;0.00;;;;;1.35;82.81;97947.09;4910743;28;103146;-69
2022/12/08 03:55:20;;;;;;;;;1.00;0.00;;;;;1.34;82.79;97948.09;4906988;28;102562;-68
2022/12/08 03:57:47;;;;;;;;;0.00;0.00;;;;;1.34;82.95;97953.41;4912383;28;102338;-68
2022/12/08 04:00:15;;;;;;;;;0.00;0.00;;;;;1.35;82.87;97949.75;4907301;28;103999;-68
2022/12/08 04:02:43;;;;;;;;;0.00;0.00;;;;;1.36;82.71;97959.38;4907689;28;102003;-68
2022/12/08 04:05:10;;;;;;;;;0.00;0.00;;;;;1.35;83.05;97950.56;4906473;28;102426;-68
2022/12/08 04:07:37;;;;;;;;;0.00;0.00;;;;;1.36;82.98;97962.06;4910276;28;102239;-68
2022/12/08 04:10:04;;;;;;;;;0.00;0.00;;;;;1.34;82.89;97962.25;4910527;28;104084;-68
2022/12/08 04:12:32;;;;;;;;;0.50;0.00;;;;;1.32;82.90;97960.72;4913098;28;102722;-68
2022/12/08 04:14:58;;;;;;;;;0.00;0.00;;;;;1.25;82.77;97957.03;4913053;28;102192;-68
2022/12/08 04:17:26;;;;;;;;;0.00;0.00;;;;;1.28;83.18;97959.34;4913651;28;102334;-68
2022/12/08 04:19:53;;;;;;;;;0.00;0.00;;;;;1.28;83.17;97967.34;4906755;28;105231;-68
2022/12/08 04:22:20;;;;;;;;;0.00;0.00;;;;;1.24;83.38;97956.19;4908894;28;103805;-68
2022/12/08 04:24:47;;;;;;;;;0.00;0.00;;;;;1.24;83.65;97953.53;4909030;28;102174;-68
2022/12/08 04:27:14;;;;;;;;;0.00;0.00;;;;;1.22;83.51;97952.84;4909695;28;102716;-69
2022/12/08 04:29:41;;;;;;;;;0.00;0.00;;;;;1.24;84.12;97955.34;4906017;28;103664;-68
2022/12/08 04:32:07;;;;;;;;;0.00;0.00;;;;;1.24;83.88;97950.84;4907333;28;102337;-68
2022/12/08 04:34:34;;;;;;;;;0.00;0.00;;;;;1.24;84.49;97952.69;4907026;28;102171;-71
2022/12/08 04:37:01;;;;;;;;;0.00;0.00;;;;;1.22;83.55;97947.50;4911441;28;102804;-69
2022/12/08 04:39:28;;;;;;;;;1.00;0.00;;;;;1.23;84.30;97948.34;4905009;28;108717;-69
2022/12/08 04:41:55;;;;;;;;;0.00;0.00;;;;;1.23;83.60;97945.69;4912369;28;103082;-70
2022/12/08 04:44:22;;;;;;;;;0.00;0.00;;;;;1.24;82.81;97947.34;4909667;28;102492;-69
2022/12/08 04:46:49;;;;;;;;;0.50;0.00;;;;;1.23;83.95;97943.03;4913314;28;102337;-69
2022/12/08 04:49:16;;;;;;;;;0.00;0.00;;;;;1.25;83.20;97946.38;4910555;28;104218;-69
2022/12/08 04:51:43;;;;;;;;;0.00;0.00;;;;;1.24;83.93;97936.72;4897740;28;107441;-68
2022/12/08 04:54:10;;;;;;;;;0.00;0.00;;;;;1.09;83.68;97911.66;4913025;28;102592;-70
2022/12/08 04:56:37;;;;;;;;;0.00;0.00;;;;;1.24;83.54;97942.03;4908137;28;102558;-69
2022/12/08 04:59:04;;;;;;;;;0.00;0.00;;;;;1.23;83.94;97943.03;4907252;28;103692;-70
2022/12/08 05:01:31;;;;;;;;;0.00;0.00;;;;;1.13;83.63;97924.50;4911084;28;104035;-70
2022/12/08 05:03:58;;;;;;;;;0.25;0.00;;;;;1.22;83.59;97936.00;4908741;28;104811;-68
2022/12/08 05:06:25;;;;;;;;;0.00;0.00;;;;;1.24;83.70;97936.72;4907871;28;102358;-69
2022/12/08 05:08:52;;;;;;;;;0.00;0.00;;;;;1.22;83.02;97944.84;4908556;28;104258;-71
2022/12/08 05:11:19;;;;;;;;;1.00;0.00;;;;;1.16;84.05;97934.00;4907547;28;102914;-68
2022/12/08 05:13:46;;;;;;;;;0.00;0.00;;;;;1.22;83.47;97941.34;4906407;28;102132;-68
2022/12/08 05:16:16;;;;;;;;;0.00;0.00;;;;;1.23;83.48;97940.34;4909827;28;106115;-67
2022/12/08 05:18:43;;;;;;;;;1.50;0.00;;;;;1.24;83.29;97940.22;4903548;28;104044;-70
2022/12/08 05:21:10;;;;;;;;;0.00;0.00;;;;;1.27;83.73;97949.69;4907244;28;102345;-69
2022/12/08 05:23:37;;;;;;;;;0.00;0.00;;;;;1.28;84.50;97938.06;4908150;28;102304;-69
2022/12/08 05:26:05;;;;;;;;;0.00;0.00;;;;;1.29;84.06;97939.72;4907005;28;102771;-68
2022/12/08 05:28:32;;;;;;;;;2.00;0.00;;;;;1.27;83.33;97941.72;4910080;28;104028;-69
2022/12/08 05:31:10;;;;;;;;;0.00;0.00;;;;;1.32;83.04;97942.06;4908112;28;102430;-69
2022/12/08 05:33:37;;;;;;;;;0.00;0.00;;;;;1.33;83.31;97930.44;4894123;28;102385;-69
2022/12/08 05:36:04;;;;;;;;;0.00;0.00;;;;;1.35;83.08;97929.25;4908162;28;102382;-69
2022/12/08 05:38:31;;;;;;;;;0.00;0.00;;;;;1.37;83.21;97931.78;4910032;28;104194;-70
2022/12/08 05:40:58;;;;;;;;;0.75;0.00;;;;;1.30;83.22;97925.44;4909308;28;101940;-69
2022/12/08 05:43:26;;;;;;;;;0.50;0.00;;;;;1.40;82.94;97946.63;4907578;28;102310;-69
2022/12/08 05:45:53;;;;;;;;;0.00;0.00;;;;;1.40;82.94;97943.97;4910464;28;102273;-70
2022/12/08 05:48:20;;;;;;;;;1.00;0.00;;;;;1.38;82.83;97936.13;4910497;28;104025;-70
2022/12/08 05:50:48;;;;;;;;;0.00;0.00;;;;;1.39;83.73;97940.44;4912021;28;102519;-70
2022/12/08 05:53:16;;;;;;;;;1.00;0.00;;;;;1.39;83.02;97948.44;4912123;28;102457;-70
2022/12/08 05:55:44;;;;;;;;;0.00;0.00;;;;;1.38;83.03;97951.25;4903748;28;104424;-69
2022/12/08 05:58:14;;;;;;;;;0.00;0.00;;;;;1.37;82.73;97942.44;4911279;28;103988;-70
2022/12/08 06:00:41;;;;;;;;;0.00;0.00;;;;;1.34;82.20;97946.25;4912828;28;102255;-70
2022/12/08 06:03:11;;;;;;;;;0.00;0.00;;;;;1.31;82.52;97949.22;4909646;28;102266;-70
2022/12/08 06:05:44;;;;;;;;;0.00;0.00;;;;;1.25;82.04;97941.03;4912828;28;102328;-70
2022/12/08 06:08:11;;;;;;;;;0.00;0.00;;;;;1.29;82.46;97961.88;4910941;28;104129;-70
2022/12/08 06:10:41;;;;;;;;;0.75;0.00;;;;;1.28;83.21;97965.53;4911212;28;102546;-69
2022/12/08 06:13:08;;;;;;;;;0.00;0.00;;;;;1.29;82.59;97969.03;4912272;28;103251;-70
2022/12/08 06:15:36;;;;;;;;;0.00;0.00;;;;;1.27;82.56;97958.53;4913640;28;101998;-71
2022/12/08 06:18:03;;;;;;;;;1.00;1.00;;;;;1.25;82.58;97954.34;4915622;28;104251;-70
2022/12/08 06:20:30;;;;;;;;;4.75;4.00;;;;;1.24;82.92;97953.53;4899566;28;102220;-68
2022/12/08 06:22:57;;;;;;;;;4.75;2.50;;;;;1.21;82.65;97953.00;4913304;28;102132;-69
2022/12/08 06:25:26;;;;;;;;;2.00;2.00;;;;;1.22;82.74;97955.50;4916185;28;102040;-70
2022/12/08 06:27:53;;;;;;;;;5.00;3.00;;;;;1.04;81.94;97932.59;4904834;28;104308;-70
2022/12/08 06:30:19;;;;;;;;;4.75;4.00;;;;;1.24;82.55;97968.66;4916296;28;102039;-69
2022/12/08 06:32:46;;;;;;;;;5.75;4.25;;;;;1.18;82.93;97947.97;4915348;28;102338;-69
2022/12/08 06:35:13;;;;;;;;;2.25;1.75;;;;;1.24;82.08;97964.16;4917228;28;104622;-69
2022/12/08 06:37:40;;;;;;;;;2.00;1.50;;;;;1.25;81.82;97970.34;4910300;28;104094;-69
2022/12/08 06:40:08;;;;;;;;;5.25;2.00;;;;;1.21;82.01;97961.00;4916407;28;102169;-70
2022/12/08 06:42:45;;;;;;;;;1.25;1.00;;;;;1.25;81.79;97973.00;4886853;28;103114;-70
2022/12/08 06:45:14;;;;;;;;;1.50;1.00;;;;;1.15;81.75;97953.63;4882148;28;101785;-69
2022/12/08 06:47:43;;;;;;;;;2.00;0.00;;;;;1.24;82.09;97971.31;4896752;28;103967;-69
2022/12/08 06:50:12;;;;;;;;;1.00;1.00;;;;;1.32;81.03;97982.84;4914752;28;102240;-69
2022/12/08 06:52:40;;;;;;;;;2.00;1.25;;;;;1.36;81.69;97978.03;4913565;28;106177;-69
2022/12/08 06:55:21;;;;;;;;;0.75;0.75;;;;;1.38;81.47;97985.88;4916656;28;102500;-69
2022/12/08 06:58:12;;;;;;;;;0.25;0.00;;;;;1.39;80.86;97988.41;4912027;28;109757;-69
2022/12/08 07:00:40;;;;;;;;;0.00;0.00;;;;;1.41;81.29;97997.03;4908574;28;102639;-69
2022/12/08 07:03:08;;;;;;;;;0.00;0.00;;;;;1.32;80.43;97982.84;4901114;28;102225;-69
2022/12/08 07:05:36;;;;;;;;;0.00;0.00;;;;;1.40;81.53;98000.69;4913809;28;102040;-68
2022/12/08 07:08:04;;;;;;;;;1.00;1.00;;;;;1.38;81.26;97993.88;4901682;28;108842;-70
2022/12/08 07:10:32;;;;;;;;;0.00;0.00;;;;;1.38;81.51;97992.03;4913959;28;101990;-70
2022/12/08 07:12:59;;;;;;;;;0.00;0.00;;;;;1.43;80.75;97997.72;4890154;28;102188;-71
2022/12/08 07:15:26;;;;;;;;;1.00;0.00;;;;;1.44;80.64;97994.06;4908622;28;102442;-70
2022/12/08 07:17:53;;;;;;;;;0.00;0.00;;;;;1.44;80.90;97988.72;4912503;28;104047;-70
2022/12/08 07:20:25;;;;;;;;;0.25;0.00;;;;;1.47;81.05;97990.25;4907190;28;102186;-69
2022/12/08 07:22:53;;;;;;;;;0.00;0.00;;;;;1.39;80.63;97982.22;4913901;28;102305;-69
2022/12/08 07:25:20;;;;;;;;;0.75;0.00;;;;;1.47;80.69;97991.09;4908388;28;102221;-70
2022/12/08 07:27:50;;;;;;;;;1.50;0.00;;;;;1.44;80.72;97990.59;4893634;28;104001;-70
2022/12/08 07:30:18;;;;;;;;;0.00;0.00;;;;;1.49;80.28;97988.25;4895142;28;102295;-69
2022/12/08 07:32:45;;;;;;;;;0.00;0.00;;;;;1.50;80.82;97989.91;4898266;28;102374;-69
2022/12/08 07:35:13;;;;;;;;;0.00;0.00;;;;;1.50;80.93;97990.75;4885576;28;102477;-69
2022/12/08 07:37:40;;;;;;;;;0.00;0.00;;;;;1.51;81.14;97991.59;4894791;28;103966;-70
2022/12/08 07:40:09;;;;;;;;;0.00;0.00;;;;;1.50;80.43;97979.28;4900784;28;102069;-69
2022/12/08 07:42:36;;;;;;;;;0.00;0.00;;;;;1.49;80.10;97985.59;4901130;28;102268;-73
2022/12/08 07:45:03;;;;;;;;;0.00;0.00;;;;;1.52;80.73;97983.47;4884937;28;102202;-69
2022/12/08 07:47:30;;;;;;;;;0.00;0.00;;;;;1.51;80.94;97987.13;4912163;28;104429;-69
2022/12/08 07:49:57;;;;;;;;;1.00;0.00;;;;;1.51;80.15;97975.63;4897331;28;102261;-70
2022/12/08 07:52:24;;;;;;;;;2.00;0.00;;;;;1.52;81.27;97995.94;4896424;28;102155;-69
2022/12/08 07:54:52;;;;;;;;;0.00;0.00;;;;;1.50;80.75;97996.09;4903505;28;102116;-69
2022/12/08 07:57:19;;;;;;;;;0.00;0.00;;;;;1.52;81.08;97994.13;4900899;28;104316;-69
2022/12/08 07:59:46;;;;;;;;;0.00;0.00;;;;;1.53;80.83;97984.31;4902922;28;102369;-69
2022/12/08 08:02:18;;;;;;;;;0.00;0.00;;;;;1.52;81.10;97987.94;4910023;28;102430;-69
2022/12/08 08:04:51;;;;;;;;;0.00;0.00;;;;;1.52;81.72;97982.63;4901047;28;102179;-70
2022/12/08 08:07:19;;;;;;;;;1.00;0.00;;;;;1.54;80.68;97992.13;4894529;28;103942;-70
2022/12/08 08:09:46;;;;;;;;;0.00;0.00;;;;;1.58;81.32;97995.28;4883991;28;104335;-69
2022/12/08 08:12:13;;;;;;;;;0.00;0.00;;;;;1.54;80.91;97976.13;4904459;28;102374;-69
2022/12/08 08:15:02;;;;;;;;;0.00;0.00;;;;;1.71;80.69;97990.38;4909570;28;102418;-69
2022/12/08 08:17:29;;;;;;;;;0.00;0.00;;;;;1.82;80.65;97997.22;4911935;28;104049;-69
2022/12/08 08:19:56;;;;;;;;;0.00;0.00;;;;;1.90;81.04;97990.09;4902799;28;102032;-69
2022/12/08 08:22:25;;;;;;;;;0.00;0.00;;;;;2.02;80.31;97993.31;4910621;28;102510;-69
2022/12/08 08:24:53;;;;;;;;;0.50;0.00;;;;;2.12;79.95;97996.66;4908061;28;102192;-68
2022/12/08 08:27:20;;;;;;;;;0.00;0.00;;;;;2.21;79.92;97985.84;4908495;28;103717;-69
2022/12/08 08:29:47;;;;;;;;;2.00;1.00;;;;;2.28;79.08;97990.53;4881560;28;102486;-68
2022/12/08 08:32:14;;;;;;;;;0.25;0.00;;;;;2.35;78.84;97995.03;4885199;28;102692;-69
2022/12/08 08:34:41;;;;;;;;;0.50;0.50;;;;;2.32;78.59;97976.69;4889939;28;102355;-69
2022/12/08 08:37:09;;;;;;;;;0.00;0.00;;;;;2.45;78.62;97997.56;4907269;28;104578;-69
2022/12/08 08:39:36;;;;;;;;;0.00;0.00;;;;;2.46;77.57;97989.41;4902184;28;111429;-69
2022/12/08 08:42:03;;;;;;;;;0.00;0.00;;;;;2.50;77.36;97987.22;4897076;28;102319;-69
2022/12/08 08:44:30;;;;;;;;;0.00;0.00;;;;;2.53;77.48;97990.38;4897031;28;103006;-69
2022/12/08 08:46:57;;;;;;;;;0.00;0.00;;;;;2.57;77.16;97983.72;4896583;28;104016;-69
2022/12/08 08:49:24;;;;;;;;;0.00;0.00;;;;;2.59;76.68;97983.56;4898936;28;102106;-69
2022/12/08 08:51:51;;;;;;;;;0.00;0.00;;;;;2.59;75.85;97988.91;4897485;28;105711;-70
2022/12/08 08:54:18;;;;;;;;;0.00;0.00;;;;;2.57;75.94;97982.88;4908349;28;102481;-69
2022/12/08 08:56:47;;;;;;;;;0.00;0.00;;;;;2.56;76.24;97984.75;4905295;28;104019;-69
2022/12/08 08:59:14;;;;;;;;;0.25;0.25;;;;;2.58;77.15;97984.56;4910029;28;101979;-70
2022/12/08 09:01:42;;;;;;;;;1.00;0.50;;;;;2.64;77.35;97983.91;4885252;28;102877;-69
2022/12/08 09:04:09;;;;;;;;;1.00;0.00;;;;;2.61;77.69;97966.38;4888254;28;102382;-70
2022/12/08 09:06:37;;;;;;;;;1.00;0.00;;;;;2.74;76.13;97978.41;4904599;28;104432;-70
2022/12/08 09:09:04;;;;;;;;;2.00;0.50;;;;;2.80;76.57;97983.06;4906625;28;102033;-71
2022/12/08 09:11:32;;;;;;;;;2.00;1.00;;;;;2.87;76.10;97976.91;4908828;28;102157;-69
2022/12/08 09:13:59;;;;;;;;;1.00;0.50;;;;;2.94;74.51;97972.53;4906118;28;102422;-69
2022/12/08 09:16:26;;;;;;;;;0.00;0.00;;;;;3.06;75.68;97973.84;4894978;28;104484;-69
2022/12/08 09:18:53;;;;;;;;;1.25;0.00;;;;;3.15;75.26;97970.16;4871408;28;102501;-69
2022/12/08 09:21:24;;;;;;;;;1.00;0.00;;;;;3.23;74.51;97966.66;4886871;28;101997;-70
2022/12/08 09:23:55;;;;;;;;;0.00;0.00;;;;;3.28;74.16;97968.81;4897204;28;102103;-70
2022/12/08 09:26:23;;;;;;;;;0.00;0.00;;;;;3.32;74.29;97962.97;4913206;28;103983;-70
2022/12/08 09:28:52;;;;;;;;;0.75;0.75;;;;;3.38;74.10;97964.94;4912941;28;102399;-69
2022/12/08 09:31:21;;;;;;;;;0.75;0.75;;;;;3.42;73.80;97954.75;4911775;28;101824;-70
2022/12/08 09:33:52;;;;;;;;;1.75;1.00;;;;;3.43;73.37;97948.38;4913267;28;102426;-69
2022/12/08 09:36:19;;;;;;;;;1.00;1.00;;;;;3.49;74.38;97945.88;4912855;28;104246;-70
2022/12/08 09:38:47;;;;;;;;;1.50;1.00;;;;;3.59;74.38;97943.00;4902534;28;102163;-70
2022/12/08 09:41:33;;;;;;;;;1.00;1.00;;;;;3.65;73.83;97939.63;4911922;28;102444;-70
2022/12/08 09:44:24;;;;;;;;;1.50;1.00;;;;;3.70;72.38;97937.25;4910415;28;102204;-70
2022/12/08 09:46:52;;;;;;;;;1.50;1.00;;;;;3.72;72.61;97939.75;4913406;28;103954;-70
2022/12/08 09:49:26;;;;;;;;;1.25;1.00;;;;;3.78;72.95;97933.72;4912774;28;102428;-70
2022/12/08 09:51:54;;;;;;;;;1.75;0.00;;;;;3.77;72.51;97918.69;4913546;28;102057;-69
2022/12/08 09:54:29;;;;;;;;;1.25;1.25;;;;;3.81;72.70;97915.50;4914558;28;102342;-68
2022/12/08 09:57:00;;;;;;;;;1.50;0.50;;;;;3.93;71.81;97931.97;4915051;28;104004;-69
2022/12/08 09:59:32;;;;;;;;;2.00;1.50;;;;;3.95;71.79;97933.47;4914662;28;102187;-69
2022/12/08 10:02:19;;;;;;;;;0.75;0.75;;;;;4.01;70.91;97929.22;4915547;28;102149;-69
2022/12/08 10:04:46;;;;;;;;;0.00;0.00;;;;;4.07;71.18;97931.22;4906263;28;102288;-69
2022/12/08 10:07:42;;;;;;;;;0.00;0.00;;;;;4.15;71.51;97930.31;4901718;28;103196;-69
2022/12/08 10:10:38;;;;;;;;;0.25;0.25;;;;;4.14;71.04;97918.81;4895411;28;102452;-69
2022/12/08 10:13:23;;;;;;;;;1.25;1.00;;;;;4.18;69.45;97933.50;4914417;28;102317;-70
2022/12/08 10:16:17;;;;;;;;;2.00;1.00;;;;;4.24;69.41;97930.09;4914040;28;102477;-70
2022/12/08 10:19:06;;;;;;;;;0.00;0.00;;;;;4.30;70.02;97923.22;4913842;28;108657;-70
2022/12/08 10:21:33;;;;;;;;;0.00;0.00;;;;;4.34;69.98;97925.34;4892668;28;102262;-70
2022/12/08 10:24:09;;;;;;;;;1.00;0.50;;;;;4.29;69.23;97922.38;4905836;28;101863;-70
2022/12/08 10:26:36;;;;;;;;;1.00;0.00;;;;;4.33;70.78;97918.31;4897518;28;102515;-70
2022/12/08 10:29:03;;;;;;;;;0.25;0.25;;;;;4.09;70.74;97881.06;4895833;28;108458;-70
2022/12/08 10:31:31;;;;;;;;;2.00;2.00;;;;;4.12;70.45;97896.75;4893166;28;102047;-70
2022/12/08 10:34:16;;;;;;;;;1.00;1.00;;;;;4.22;70.20;97910.72;4894412;28;102250;-71
2022/12/08 10:36:44;;;;;;;;;1.00;0.00;;;;;4.28;69.62;97915.34;4891879;28;102376;-71
2022/12/08 10:39:35;;;;;;;;;0.00;0.00;;;;;4.30;69.63;97913.34;4879851;28;104088;-71
2022/12/08 10:42:16;;;;;;;;;0.00;0.00;;;;;4.33;70.34;97910.28;4857438;28;102361;-71
2022/12/08 10:45:26;;;;;;;;;2.00;1.00;;;;;4.25;67.99;97899.66;4840214;28;106492;-69
2022/12/08 10:48:17;;;;;;;;;2.00;2.00;;;;;4.25;68.50;97910.34;4885929;28;102136;-70
2022/12/08 10:50:49;;;;;;;;;1.75;1.75;;;;;4.08;66.49;97908.81;4894340;28;109434;-69
2022/12/08 10:53:23;;;;;;;;;0.00;0.00;;;;;4.10;65.52;97895.28;4891684;28;102671;-69
2022/12/08 10:56:13;;;;;;;;;2.00;1.00;;;;;4.19;65.90;97905.72;4866710;28;102722;-69
2022/12/08 10:58:46;;;;;;;;;1.00;1.00;;;;;4.11;66.04;97899.59;4891622;28;102018;-69
2022/12/08 11:01:13;;;;;;;;;1.25;0.00;;;;;4.15;65.36;97904.41;4867522;28;106201;-70
2022/12/08 11:03:51;;;;;;;;;1.00;1.00;;;;;4.12;65.62;97894.06;4875292;28;102407;-68
2022/12/08 11:06:23;;;;;;;;;0.50;0.50;;;;;4.12;66.24;97894.06;4895096;28;102123;-71
2022/12/08 11:09:02;;;;;;;;;0.50;0.50;;;;;4.19;65.90;97895.00;4893840;28;102338;-69
2022/12/08 11:11:52;;;;;;;;;0.00;0.00;;;;;4.28;66.45;97896.63;4884348;28;102856;-69
2022/12/08 11:14:37;;;;;;;;;0.00;0.00;;;;;4.27;65.51;97896.81;4891853;28;102422;-71
2022/12/08 11:17:39;;;;;;;;;0.00;0.00;;;;;4.24;65.21;97903.34;4894628;28;102007;-70
2022/12/08 11:20:09;;;;;;;;;0.75;0.75;;;;;4.20;66.27;97898.53;4840568;28;102058;-70
2022/12/08 11:22:44;;;;;;;;;2.00;1.00;;;;;4.07;66.20;97891.09;4876515;28;108606;-70
2022/12/08 11:25:19;;;;;;;;;1.00;1.00;;;;;4.05;66.17;97895.81;4901276;28;102425;-70
2022/12/08 11:27:49;;;;;;;;;4.75;1.00;;;;;4.08;66.33;97903.47;4916443;28;102208;-70
2022/12/08 11:30:20;;;;;;;;;2.00;1.00;;;;;4.09;66.19;97898.94;4913619;28;102210;-70
2022/12/08 11:32:53;;;;;;;;;2.00;1.25;;;;;4.08;65.83;97899.94;4911268;28;104075;-69
2022/12/08 11:35:32;;;;;;;;;1.00;1.00;;;;;4.06;66.58;97902.78;4911385;28;102467;-69
2022/12/08 11:38:22;;;;;;;;;1.00;1.00;;;;;4.11;66.09;97900.41;4893871;28;102369;-69
2022/12/08 11:41:04;;;;;;;;;1.00;1.00;;;;;4.09;66.64;97889.09;4902697;28;102379;-69
2022/12/08 11:43:58;;;;;;;;;1.00;1.00;;;;;4.13;67.26;97890.38;4874967;28;108423;-71
2022/12/08 11:46:34;;;;;;;;;0.00;0.00;;;;;4.02;66.29;97893.47;4890301;28;102115;-69
2022/12/08 11:49:09;;;;;;;;;0.75;0.00;;;;;3.86;67.27;97864.16;4885924;28;102000;-69
2022/12/08 11:52:01;;;;;;;;;0.25;0.25;;;;;3.87;68.80;97906.75;4900489;28;102252;-70
2022/12/08 11:54:39;;;;;;;;;1.00;0.75;;;;;3.80;69.77;97899.63;4900360;28;103094;-69
2022/12/08 11:57:14;;;;;;;;;1.00;0.00;;;;;3.69;69.18;97892.00;4871683;28;102278;-69
2022/12/08 11:59:48;;;;;;;;;0.50;0.00;;;;;3.72;70.90;97900.50;4908528;28;102056;-69